sensor_id;sensor_type;location;lat;lon;timestamp;pressure;altitude;pressure_sealevel;temperature;humidity
68634;BME280;55625;47.072;22.192;2023-01-09T00:01:45;99555.72;;;7.65;83.54
68634;BME280;55625;47.072;22.192;2023-01-09T00:04:12;99542.84;;;7.64;82.88
68634;BME280;55625;47.072;22.192;2023-01-09T00:06:38;99551.31;;;7.64;83.55
68634;BME280;55625;47.072;22.192;2023-01-09T00:09:09;99544.88;;;7.63;81.56
68634;BME280;55625;47.072;22.192;2023-01-09T00:11:36;99539.53;;;7.69;81.76
68634;BME280;55625;47.072;22.192;2023-01-09T00:14:03;99532.63;;;7.70;80.86
68634;BME280;55625;47.072;22.192;2023-01-09T00:16:29;99532.56;;;7.73;81.20
68634;BME280;55625;47.072;22.192;2023-01-09T00:18:55;99517.19;;;7.74;80.05
68634;BME280;55625;47.072;22.192;2023-01-09T00:21:21;99528.84;;;7.76;79.82
68634;BME280;55625;47.072;22.192;2023-01-09T00:23:47;99526.81;;;7.77;80.40
68634;BME280;55625;47.072;22.192;2023-01-09T00:26:16;99522.50;;;7.89;76.54
68634;BME280;55625;47.072;22.192;2023-01-09T00:28:45;99516.75;;;7.92;77.35
68634;BME280;55625;47.072;22.192;2023-01-09T00:31:12;99514.22;;;7.98;76.90
68634;BME280;55625;47.072;22.192;2023-01-09T00:33:45;99521.00;;;8.00;77.13
68634;BME280;55625;47.072;22.192;2023-01-09T00:36:13;99520.56;;;8.02;76.48
68634;BME280;55625;47.072;22.192;2023-01-09T00:38:39;99510.06;;;8.02;77.04
68634;BME280;55625;47.072;22.192;2023-01-09T00:41:09;99514.72;;;8.09;75.59
68634;BME280;55625;47.072;22.192;2023-01-09T00:43:45;99513.84;;;8.12;75.42
68634;BME280;55625;47.072;22.192;2023-01-09T00:46:14;99506.06;;;8.16;75.24
68634;BME280;55625;47.072;22.192;2023-01-09T00:48:42;99503.16;;;8.20;74.59
68634;BME280;55625;47.072;22.192;2023-01-09T00:51:10;99495.81;;;8.22;74.97
68634;BME280;55625;47.072;22.192;2023-01-09T00:53:38;99491.03;;;8.19;75.26
68634;BME280;55625;47.072;22.192;2023-01-09T00:56:09;99485.84;;;8.18;75.41
68634;BME280;55625;47.072;22.192;2023-01-09T00:58:36;99475.69;;;8.20;74.65
68634;BME280;55625;47.072;22.192;2023-01-09T01:01:46;99480.09;;;8.21;74.50
68634;BME280;55625;47.072;22.192;2023-01-09T01:04:11;99483.47;;;8.16;75.44
68634;BME280;55625;47.072;22.192;2023-01-09T01:07:00;99482.22;;;8.17;74.07
68634;BME280;55625;47.072;22.192;2023-01-09T01:09:44;99481.88;;;8.15;74.58
68634;BME280;55625;47.072;22.192;2023-01-09T01:12:10;99484.00;;;8.11;74.86
68634;BME280;55625;47.072;22.192;2023-01-09T01:14:37;99485.22;;;8.10;73.71
68634;BME280;55625;47.072;22.192;2023-01-09T01:17:04;99474.72;;;8.10;73.82
68634;BME280;55625;47.072;22.192;2023-01-09T01:19:30;99473.13;;;8.09;73.39
68634;BME280;55625;47.072;22.192;2023-01-09T01:21:57;99475.97;;;8.09;74.11
68634;BME280;55625;47.072;22.192;2023-01-09T01:24:23;99468.72;;;8.08;73.80
68634;BME280;55625;47.072;22.192;2023-01-09T01:26:49;99469.97;;;8.07;73.88
68634;BME280;55625;47.072;22.192;2023-01-09T01:29:14;99469.16;;;8.07;74.42
68634;BME280;55625;47.072;22.192;2023-01-09T01:31:40;99461.38;;;8.11;73.22
68634;BME280;55625;47.072;22.192;2023-01-09T01:34:06;99458.22;;;8.09;73.58
68634;BME280;55625;47.072;22.192;2023-01-09T01:36:33;99460.69;;;8.07;72.93
68634;BME280;55625;47.072;22.192;2023-01-09T01:38:59;99457.41;;;8.08;73.38
68634;BME280;55625;47.072;22.192;2023-01-09T01:41:25;99452.66;;;8.05;73.26
68634;BME280;55625;47.072;22.192;2023-01-09T01:43:58;99451.84;;;8.05;73.17
68634;BME280;55625;47.072;22.192;2023-01-09T01:46:24;99445.84;;;8.03;72.68
68634;BME280;55625;47.072;22.192;2023-01-09T01:49:13;99433.31;;;8.04;72.69
68634;BME280;55625;47.072;22.192;2023-01-09T01:51:43;99430.03;;;8.05;72.03
68634;BME280;55625;47.072;22.192;2023-01-09T01:54:16;99422.00;;;8.04;72.40
68634;BME280;55625;47.072;22.192;2023-01-09T01:56:52;99407.53;;;8.02;72.28
68634;BME280;55625;47.072;22.192;2023-01-09T01:59:41;99406.91;;;7.94;72.50
68634;BME280;55625;47.072;22.192;2023-01-09T02:02:22;99408.25;;;7.90;72.56
68634;BME280;55625;47.072;22.192;2023-01-09T02:04:52;99406.66;;;7.89;71.69
68634;BME280;55625;47.072;22.192;2023-01-09T02:07:19;99398.09;;;7.92;71.99
68634;BME280;55625;47.072;22.192;2023-01-09T02:09:45;99391.63;;;7.92;73.03
68634;BME280;55625;47.072;22.192;2023-01-09T02:12:23;99381.41;;;7.98;72.89
68634;BME280;55625;47.072;22.192;2023-01-09T02:15:03;99382.56;;;8.00;70.81
68634;BME280;55625;47.072;22.192;2023-01-09T02:32:18;99382.50;;;8.17;69.30
68634;BME280;55625;47.072;22.192;2023-01-09T02:40:52;99379.69;;;8.46;67.36
68634;BME280;55625;47.072;22.192;2023-01-09T02:43:20;99393.38;;;8.47;66.39
68634;BME280;55625;47.072;22.192;2023-01-09T02:45:47;99379.94;;;8.51;66.88
68634;BME280;55625;47.072;22.192;2023-01-09T02:48:12;99375.00;;;8.68;63.79
68634;BME280;55625;47.072;22.192;2023-01-09T02:51:05;99381.72;;;8.87;62.59
68634;BME280;55625;47.072;22.192;2023-01-09T02:53:53;99374.94;;;8.97;63.09
68634;BME280;55625;47.072;22.192;2023-01-09T03:02:40;99376.41;;;9.14;61.07
68634;BME280;55625;47.072;22.192;2023-01-09T03:07:59;99366.22;;;9.17;62.00
68634;BME280;55625;47.072;22.192;2023-01-09T03:10:36;99365.53;;;9.13;62.00
68634;BME280;55625;47.072;22.192;2023-01-09T03:13:09;99371.44;;;9.06;63.11
68634;BME280;55625;47.072;22.192;2023-01-09T03:15:38;99354.91;;;9.04;62.56
68634;BME280;55625;47.072;22.192;2023-01-09T03:18:08;99355.03;;;9.00;63.14
68634;BME280;55625;47.072;22.192;2023-01-09T03:20:36;99346.53;;;8.88;62.94
68634;BME280;55625;47.072;22.192;2023-01-09T03:23:05;99348.00;;;8.92;62.73
68634;BME280;55625;47.072;22.192;2023-01-09T03:25:33;99353.09;;;8.97;63.12
68634;BME280;55625;47.072;22.192;2023-01-09T03:28:05;99339.16;;;9.03;61.91
68634;BME280;55625;47.072;22.192;2023-01-09T03:30:34;99346.63;;;9.10;62.15
68634;BME280;55625;47.072;22.192;2023-01-09T03:33:00;99341.31;;;9.12;62.12
68634;BME280;55625;47.072;22.192;2023-01-09T03:35:26;99345.84;;;9.09;62.24
68634;BME280;55625;47.072;22.192;2023-01-09T03:37:53;99341.22;;;9.02;62.68
68634;BME280;55625;47.072;22.192;2023-01-09T03:40:19;99331.38;;;8.94;63.47
68634;BME280;55625;47.072;22.192;2023-01-09T03:42:46;99331.03;;;8.92;62.87
68634;BME280;55625;47.072;22.192;2023-01-09T03:45:13;99336.00;;;8.88;63.93
68634;BME280;55625;47.072;22.192;2023-01-09T03:47:38;99333.41;;;8.94;63.07
68634;BME280;55625;47.072;22.192;2023-01-09T03:50:05;99329.56;;;9.00;61.79
68634;BME280;55625;47.072;22.192;2023-01-09T03:52:31;99320.72;;;8.98;62.47
68634;BME280;55625;47.072;22.192;2023-01-09T03:54:58;99325.69;;;8.94;62.70
68634;BME280;55625;47.072;22.192;2023-01-09T03:57:24;99320.16;;;8.91;63.11
68634;BME280;55625;47.072;22.192;2023-01-09T03:59:50;99322.75;;;8.85;63.55
68634;BME280;55625;47.072;22.192;2023-01-09T04:02:16;99333.59;;;8.87;63.19
68634;BME280;55625;47.072;22.192;2023-01-09T04:04:42;99323.97;;;8.84;64.30
68634;BME280;55625;47.072;22.192;2023-01-09T04:07:08;99326.47;;;8.82;62.73
68634;BME280;55625;47.072;22.192;2023-01-09T04:09:33;99314.47;;;8.78;63.74
68634;BME280;55625;47.072;22.192;2023-01-09T04:11:59;99317.09;;;8.73;65.04
68634;BME280;55625;47.072;22.192;2023-01-09T04:14:25;99329.41;;;8.66;65.48
68634;BME280;55625;47.072;22.192;2023-01-09T04:16:51;99321.81;;;8.63;64.73
68634;BME280;55625;47.072;22.192;2023-01-09T04:19:17;99324.31;;;8.61;65.18
68634;BME280;55625;47.072;22.192;2023-01-09T04:21:42;99319.97;;;8.56;64.97
68634;BME280;55625;47.072;22.192;2023-01-09T04:24:08;99312.28;;;8.57;64.72
68634;BME280;55625;47.072;22.192;2023-01-09T04:26:34;99319.97;;;8.56;65.55
68634;BME280;55625;47.072;22.192;2023-01-09T04:29:00;99301.09;;;8.53;65.19
68634;BME280;55625;47.072;22.192;2023-01-09T04:31:26;99295.53;;;8.50;65.68
68634;BME280;55625;47.072;22.192;2023-01-09T04:33:51;99292.38;;;8.48;65.96
68634;BME280;55625;47.072;22.192;2023-01-09T04:36:17;99296.09;;;8.45;66.08
68634;BME280;55625;47.072;22.192;2023-01-09T04:38:43;99300.41;;;8.49;65.55
68634;BME280;55625;47.072;22.192;2023-01-09T04:41:09;99302.78;;;8.51;66.63
68634;BME280;55625;47.072;22.192;2023-01-09T04:43:34;99305.28;;;8.49;65.79
68634;BME280;55625;47.072;22.192;2023-01-09T04:46:01;99307.75;;;8.47;65.60
68634;BME280;55625;47.072;22.192;2023-01-09T04:48:27;99307.75;;;8.47;66.11
68634;BME280;55625;47.072;22.192;2023-01-09T04:50:53;99315.09;;;8.44;66.31
68634;BME280;55625;47.072;22.192;2023-01-09T04:53:19;99305.94;;;8.40;66.55
68634;BME280;55625;47.072;22.192;2023-01-09T04:55:45;99304.34;;;8.39;66.11
68634;BME280;55625;47.072;22.192;2023-01-09T04:58:10;99302.31;;;8.39;66.51
68634;BME280;55625;47.072;22.192;2023-01-09T05:00:36;99302.44;;;8.36;67.50
68634;BME280;55625;47.072;22.192;2023-01-09T05:03:02;99296.06;;;8.32;66.84
68634;BME280;55625;47.072;22.192;2023-01-09T05:05:28;99289.34;;;8.26;67.07
68634;BME280;55625;47.072;22.192;2023-01-09T05:07:54;99286.63;;;8.22;68.05
68634;BME280;55625;47.072;22.192;2023-01-09T05:10:20;99285.06;;;8.21;68.09
68634;BME280;55625;47.072;22.192;2023-01-09T05:12:46;99282.13;;;8.25;67.23
68634;BME280;55625;47.072;22.192;2023-01-09T05:15:12;99291.94;;;8.20;68.85
68634;BME280;55625;47.072;22.192;2023-01-09T05:17:37;99291.38;;;8.13;70.22
68634;BME280;55625;47.072;22.192;2023-01-09T05:20:04;99296.88;;;8.03;71.72
68634;BME280;55625;47.072;22.192;2023-01-09T05:22:30;99297.09;;;7.96;71.80
68634;BME280;55625;47.072;22.192;2023-01-09T05:24:56;99305.28;;;7.91;72.08
68634;BME280;55625;47.072;22.192;2023-01-09T05:27:22;99299.75;;;7.87;71.71
68634;BME280;55625;47.072;22.192;2023-01-09T05:29:47;99298.59;;;7.85;73.23
68634;BME280;55625;47.072;22.192;2023-01-09T05:32:13;99304.34;;;7.81;72.21
68634;BME280;55625;47.072;22.192;2023-01-09T05:34:39;99295.97;;;7.77;72.81
68634;BME280;55625;47.072;22.192;2023-01-09T05:37:05;99300.84;;;7.77;72.34
68634;BME280;55625;47.072;22.192;2023-01-09T05:39:31;99295.97;;;7.77;72.53
68634;BME280;55625;47.072;22.192;2023-01-09T05:41:56;99291.22;;;7.74;73.69
68634;BME280;55625;47.072;22.192;2023-01-09T05:44:22;99295.28;;;7.73;73.00
68634;BME280;55625;47.072;22.192;2023-01-09T05:46:48;99286.47;;;7.71;72.91
68634;BME280;55625;47.072;22.192;2023-01-09T05:49:14;99286.13;;;7.69;74.25
68634;BME280;55625;47.072;22.192;2023-01-09T05:51:40;99289.06;;;7.66;73.69
68634;BME280;55625;47.072;22.192;2023-01-09T05:54:05;99285.84;;;7.64;75.23
68634;BME280;55625;47.072;22.192;2023-01-09T05:56:32;99278.63;;;7.63;74.09
68634;BME280;55625;47.072;22.192;2023-01-09T05:58:57;99279.41;;;7.63;73.80
68634;BME280;55625;47.072;22.192;2023-01-09T06:01:23;99279.41;;;7.63;73.98
68634;BME280;55625;47.072;22.192;2023-01-09T06:03:49;99274.66;;;7.60;74.51
68634;BME280;55625;47.072;22.192;2023-01-09T06:06:15;99269.00;;;7.60;74.21
68634;BME280;55625;47.072;22.192;2023-01-09T06:08:41;99260.53;;;7.60;75.16
68634;BME280;55625;47.072;22.192;2023-01-09T06:11:07;99259.28;;;7.61;73.47
68634;BME280;55625;47.072;22.192;2023-01-09T06:13:33;99264.94;;;7.61;74.41
68634;BME280;55625;47.072;22.192;2023-01-09T06:15:59;99256.47;;;7.61;72.78
68634;BME280;55625;47.072;22.192;2023-01-09T06:18:24;99264.78;;;7.68;72.90
68634;BME280;55625;47.072;22.192;2023-01-09T06:20:50;99254.41;;;7.78;71.12
68634;BME280;55625;47.072;22.192;2023-01-09T06:23:16;99244.03;;;7.88;70.43
68634;BME280;55625;47.072;22.192;2023-01-09T06:25:42;99251.06;;;7.96;69.61
68634;BME280;55625;47.072;22.192;2023-01-09T06:28:08;99248.94;;;8.00;69.02
68634;BME280;55625;47.072;22.192;2023-01-09T06:30:33;99245.56;;;8.05;69.10
68634;BME280;55625;47.072;22.192;2023-01-09T06:32:59;99246.59;;;8.11;69.18
68634;BME280;55625;47.072;22.192;2023-01-09T06:35:25;99244.56;;;8.12;69.36
68634;BME280;55625;47.072;22.192;2023-01-09T06:37:51;99236.66;;;8.19;68.10
68634;BME280;55625;47.072;22.192;2023-01-09T06:40:17;99240.50;;;8.25;68.32
68634;BME280;55625;47.072;22.192;2023-01-09T06:42:46;99241.56;;;8.31;68.07
68634;BME280;55625;47.072;22.192;2023-01-09T06:45:13;99242.59;;;8.37;67.15
68634;BME280;55625;47.072;22.192;2023-01-09T06:47:39;99244.06;;;8.42;67.14
68634;BME280;55625;47.072;22.192;2023-01-09T06:50:07;99242.72;;;8.47;67.31
68634;BME280;55625;47.072;22.192;2023-01-09T06:52:35;99248.25;;;8.50;67.68
68634;BME280;55625;47.072;22.192;2023-01-09T06:55:00;99242.94;;;8.52;67.10
68634;BME280;55625;47.072;22.192;2023-01-09T06:57:26;99242.63;;;8.63;66.29
68634;BME280;55625;47.072;22.192;2023-01-09T06:59:52;99248.84;;;8.58;66.88
68634;BME280;55625;47.072;22.192;2023-01-09T07:02:20;99239.13;;;8.59;67.15
68634;BME280;55625;47.072;22.192;2023-01-09T07:04:46;99239.69;;;8.66;66.85
68634;BME280;55625;47.072;22.192;2023-01-09T07:07:13;99234.25;;;8.72;65.88
68634;BME280;55625;47.072;22.192;2023-01-09T07:09:38;99236.28;;;8.84;64.97
68634;BME280;55625;47.072;22.192;2023-01-09T07:12:04;99225.06;;;8.81;65.20
68634;BME280;55625;47.072;22.192;2023-01-09T07:14:30;99223.25;;;8.87;64.85
68634;BME280;55625;47.072;22.192;2023-01-09T07:16:56;99225.06;;;8.81;64.58
68634;BME280;55625;47.072;22.192;2023-01-09T07:19:23;99220.19;;;8.81;65.27
68634;BME280;55625;47.072;22.192;2023-01-09T07:21:49;99207.63;;;8.82;64.68
68634;BME280;55625;47.072;22.192;2023-01-09T07:24:15;99214.53;;;8.81;64.51
68634;BME280;55625;47.072;22.192;2023-01-09T07:26:40;99212.16;;;8.92;63.73
68634;BME280;55625;47.072;22.192;2023-01-09T07:29:06;99204.69;;;8.86;63.75
68634;BME280;55625;47.072;22.192;2023-01-09T07:31:32;99203.00;;;8.88;63.93
68634;BME280;55625;47.072;22.192;2023-01-09T07:33:58;99209.09;;;8.99;63.42
68634;BME280;55625;47.072;22.192;2023-01-09T07:36:24;99200.41;;;8.94;63.86
68634;BME280;55625;47.072;22.192;2023-01-09T07:38:50;99199.59;;;8.93;63.07
68634;BME280;55625;47.072;22.192;2023-01-09T07:41:15;99202.84;;;9.05;62.94
68634;BME280;55625;47.072;22.192;2023-01-09T07:43:41;99204.22;;;9.00;62.58
68634;BME280;55625;47.072;22.192;2023-01-09T07:46:07;99203.78;;;9.01;63.21
68634;BME280;55625;47.072;22.192;2023-01-09T07:48:33;99208.63;;;9.01;63.17
68634;BME280;55625;47.072;22.192;2023-01-09T07:50:59;99203.91;;;8.98;63.53
68634;BME280;55625;47.072;22.192;2023-01-09T07:53:24;99197.31;;;9.01;63.37
68634;BME280;55625;47.072;22.192;2023-01-09T07:55:50;99201.97;;;8.95;63.93
68634;BME280;55625;47.072;22.192;2023-01-09T07:58:16;99213.41;;;8.91;64.45
68634;BME280;55625;47.072;22.192;2023-01-09T08:00:42;99199.94;;;8.95;64.20
68634;BME280;55625;47.072;22.192;2023-01-09T08:03:08;99206.19;;;8.90;65.26
68634;BME280;55625;47.072;22.192;2023-01-09T08:05:34;99201.41;;;8.87;64.92
68634;BME280;55625;47.072;22.192;2023-01-09T08:07:59;99193.28;;;8.89;65.66
68634;BME280;55625;47.072;22.192;2023-01-09T08:10:26;99190.78;;;8.91;66.04
68634;BME280;55625;47.072;22.192;2023-01-09T08:12:52;99189.53;;;8.92;66.34
68634;BME280;55625;47.072;22.192;2023-01-09T08:15:18;99181.34;;;9.07;65.21
68634;BME280;55625;47.072;22.192;2023-01-09T08:17:45;99183.38;;;9.07;64.99
68634;BME280;55625;47.072;22.192;2023-01-09T08:20:13;99181.88;;;9.15;65.27
68634;BME280;55625;47.072;22.192;2023-01-09T08:22:45;99183.22;;;9.23;63.95
68634;BME280;55625;47.072;22.192;2023-01-09T08:25:15;99189.22;;;9.25;63.62
68634;BME280;55625;47.072;22.192;2023-01-09T08:27:41;99191.94;;;9.28;62.74
68634;BME280;55625;47.072;22.192;2023-01-09T08:30:08;99191.53;;;9.39;61.84
68634;BME280;55625;47.072;22.192;2023-01-09T08:32:35;99188.38;;;9.37;63.13
68634;BME280;55625;47.072;22.192;2023-01-09T08:35:02;99194.13;;;9.46;62.68
68634;BME280;55625;47.072;22.192;2023-01-09T08:37:28;99178.13;;;9.52;61.04
68634;BME280;55625;47.072;22.192;2023-01-09T08:39:54;99178.47;;;9.54;61.65
68634;BME280;55625;47.072;22.192;2023-01-09T08:42:21;99174.25;;;9.59;61.17
68634;BME280;55625;47.072;22.192;2023-01-09T08:45:06;99168.91;;;9.61;61.25
68634;BME280;55625;47.072;22.192;2023-01-09T08:47:50;99162.50;;;9.70;61.54
68634;BME280;55625;47.072;22.192;2023-01-09T08:50:16;99167.19;;;9.85;60.47
68634;BME280;55625;47.072;22.192;2023-01-09T08:52:42;99158.16;;;9.78;60.26
68634;BME280;55625;47.072;22.192;2023-01-09T08:55:08;99159.72;;;9.79;60.90
68634;BME280;55625;47.072;22.192;2023-01-09T08:57:34;99146.50;;;9.76;60.35
68634;BME280;55625;47.072;22.192;2023-01-09T09:00:00;99148.06;;;9.77;60.17
68634;BME280;55625;47.072;22.192;2023-01-09T09:02:26;99141.41;;;9.92;60.59
68634;BME280;55625;47.072;22.192;2023-01-09T09:04:52;99136.22;;;9.91;60.46
68634;BME280;55625;47.072;22.192;2023-01-09T09:07:19;99132.44;;;9.94;59.92
68634;BME280;55625;47.072;22.192;2023-01-09T09:09:52;99137.84;;;10.01;59.74
68634;BME280;55625;47.072;22.192;2023-01-09T09:12:19;99130.97;;;10.11;58.72
68634;BME280;55625;47.072;22.192;2023-01-09T09:14:45;99114.75;;;10.12;59.38
68634;BME280;55625;47.072;22.192;2023-01-09T09:17:32;99109.41;;;10.14;59.20
68634;BME280;55625;47.072;22.192;2023-01-09T09:19:59;99103.72;;;10.14;58.32
68634;BME280;55625;47.072;22.192;2023-01-09T09:22:25;99109.25;;;10.17;59.41
68634;BME280;55625;47.072;22.192;2023-01-09T09:24:51;99093.81;;;10.18;59.30
68634;BME280;55625;47.072;22.192;2023-01-09T09:27:17;99089.28;;;10.21;59.66
68634;BME280;55625;47.072;22.192;2023-01-09T09:29:43;99086.31;;;10.24;59.11
68634;BME280;55625;47.072;22.192;2023-01-09T09:32:09;99089.47;;;10.26;58.71
68634;BME280;55625;47.072;22.192;2023-01-09T09:34:35;99081.97;;;10.42;58.10
68634;BME280;55625;47.072;22.192;2023-01-09T09:37:01;99075.03;;;10.43;58.37
68634;BME280;55625;47.072;22.192;2023-01-09T09:39:27;99078.97;;;10.45;57.93
68634;BME280;55625;47.072;22.192;2023-01-09T09:47:59;99071.59;;;10.57;58.54
68634;BME280;55625;47.072;22.192;2023-01-09T09:51:01;99061.34;;;10.60;58.26
68634;BME280;55625;47.072;22.192;2023-01-09T09:53:59;99062.63;;;10.68;57.40
68634;BME280;55625;47.072;22.192;2023-01-09T09:56:25;99058.38;;;10.72;56.95
68634;BME280;55625;47.072;22.192;2023-01-09T09:59:16;99061.69;;;10.80;56.41
68634;BME280;55625;47.072;22.192;2023-01-09T10:01:55;99061.88;;;10.76;56.14
68634;BME280;55625;47.072;22.192;2023-01-09T10:04:24;99050.97;;;10.84;56.74
68634;BME280;55625;47.072;22.192;2023-01-09T10:06:58;99052.72;;;10.91;56.51
68634;BME280;55625;47.072;22.192;2023-01-09T10:12:34;99033.31;;;11.07;55.71
68634;BME280;55625;47.072;22.192;2023-01-09T10:15:16;99042.00;;;11.04;56.55
68634;BME280;55625;47.072;22.192;2023-01-09T10:24:12;99032.53;;;11.07;56.31
68634;BME280;55625;47.072;22.192;2023-01-09T10:26:41;99018.81;;;11.05;58.35
68634;BME280;55625;47.072;22.192;2023-01-09T10:35:28;99006.81;;;11.10;57.48
68634;BME280;55625;47.072;22.192;2023-01-09T10:37:59;99008.53;;;11.17;57.15
68634;BME280;55625;47.072;22.192;2023-01-09T10:41:03;99003.31;;;11.25;57.30
68634;BME280;55625;47.072;22.192;2023-01-09T10:43:51;99001.09;;;11.38;55.93
68634;BME280;55625;47.072;22.192;2023-01-09T10:46:31;99001.81;;;11.57;55.71
68634;BME280;55625;47.072;22.192;2023-01-09T10:49:00;98988.56;;;11.54;55.44
68634;BME280;55625;47.072;22.192;2023-01-09T10:54:32;98978.00;;;11.54;57.26
68634;BME280;55625;47.072;22.192;2023-01-09T10:57:14;98984.94;;;11.53;57.68
68634;BME280;55625;47.072;22.192;2023-01-09T10:59:43;98979.38;;;11.59;56.69
68634;BME280;55625;47.072;22.192;2023-01-09T11:02:30;98983.03;;;11.59;56.66
68634;BME280;55625;47.072;22.192;2023-01-09T11:04:56;98969.28;;;11.58;56.10
68634;BME280;55625;47.072;22.192;2023-01-09T11:07:36;98973.09;;;11.55;56.08
68634;BME280;55625;47.072;22.192;2023-01-09T11:10:07;98961.75;;;11.45;57.90
68634;BME280;55625;47.072;22.192;2023-01-09T11:12:35;98957.66;;;11.46;56.90
68634;BME280;55625;47.072;22.192;2023-01-09T11:15:23;98957.97;;;11.48;56.87
68634;BME280;55625;47.072;22.192;2023-01-09T11:18:37;98949.22;;;11.61;56.98
68634;BME280;55625;47.072;22.192;2023-01-09T11:20:44;98952.66;;;11.74;56.23
68634;BME280;55625;47.072;22.192;2023-01-09T11:23:30;98940.31;;;11.77;56.49
68634;BME280;55625;47.072;22.192;2023-01-09T11:26:00;98936.50;;;11.90;55.89
68634;BME280;55625;47.072;22.192;2023-01-09T11:28:27;98925.78;;;11.85;56.16
68634;BME280;55625;47.072;22.192;2023-01-09T11:30:59;98923.41;;;11.83;56.32
68634;BME280;55625;47.072;22.192;2023-01-09T11:33:37;98924.03;;;11.87;55.49
68634;BME280;55625;47.072;22.192;2023-01-09T11:36:14;98916.59;;;11.90;56.15
68634;BME280;55625;47.072;22.192;2023-01-09T11:38:59;98918.94;;;11.91;56.47
68634;BME280;55625;47.072;22.192;2023-01-09T11:41:33;98921.47;;;11.89;55.07
68634;BME280;55625;47.072;22.192;2023-01-09T11:44:00;98913.91;;;11.86;56.74
68634;BME280;55625;47.072;22.192;2023-01-09T11:46:36;98913.44;;;11.88;55.91
68634;BME280;55625;47.072;22.192;2023-01-09T11:49:28;98911.44;;;11.79;57.84
68634;BME280;55625;47.072;22.192;2023-01-09T11:52:13;98911.78;;;11.72;57.61
68634;BME280;55625;47.072;22.192;2023-01-09T11:55:04;98914.63;;;11.72;57.51
68634;BME280;55625;47.072;22.192;2023-01-09T11:57:34;98904.78;;;11.82;57.60
68634;BME280;55625;47.072;22.192;2023-01-09T12:00:08;98905.75;;;11.79;58.01
68634;BME280;55625;47.072;22.192;2023-01-09T12:03:29;98905.75;;;11.79;57.23
68634;BME280;55625;47.072;22.192;2023-01-09T12:06:17;98909.69;;;11.81;57.31
68634;BME280;55625;47.072;22.192;2023-01-09T12:09:02;98904.47;;;11.80;58.33
68634;BME280;55625;47.072;22.192;2023-01-09T12:23:18;98925.75;;;11.51;60.37
68634;BME280;55625;47.072;22.192;2023-01-09T12:26:23;98917.56;;;11.44;60.68
68634;BME280;55625;47.072;22.192;2023-01-09T12:34:55;98911.63;;;11.33;60.25
68634;BME280;55625;47.072;22.192;2023-01-09T12:37:54;98917.63;;;11.26;61.06
68634;BME280;55625;47.072;22.192;2023-01-09T12:44:18;98901.56;;;11.14;61.98
68634;BME280;55625;47.072;22.192;2023-01-09T12:46:20;98903.94;;;11.15;60.82
68634;BME280;55625;47.072;22.192;2023-01-09T12:57:29;98887.41;;;11.05;62.43
68634;BME280;55625;47.072;22.192;2023-01-09T13:00:10;98889.59;;;11.01;62.15
68634;BME280;55625;47.072;22.192;2023-01-09T13:05:48;98894.38;;;10.95;63.51
68634;BME280;55625;47.072;22.192;2023-01-09T13:08:20;98896.91;;;10.93;63.03
68634;BME280;55625;47.072;22.192;2023-01-09T13:10:52;98896.09;;;10.92;62.33
68634;BME280;55625;47.072;22.192;2023-01-09T13:16:19;98885.72;;;10.89;62.44
68634;BME280;55625;47.072;22.192;2023-01-09T13:19:10;98887.28;;;10.90;62.23
68634;BME280;55625;47.072;22.192;2023-01-09T13:21:39;98885.53;;;10.93;62.58
68634;BME280;55625;47.072;22.192;2023-01-09T13:24:19;98883.00;;;10.95;62.17
68634;BME280;55625;47.072;22.192;2023-01-09T13:27:04;98881.09;;;11.01;61.57
68634;BME280;55625;47.072;22.192;2023-01-09T13:29:43;98886.78;;;11.01;62.04
68634;BME280;55625;47.072;22.192;2023-01-09T13:35:56;98898.78;;;11.05;60.76
68634;BME280;55625;47.072;22.192;2023-01-09T13:38:28;98891.19;;;11.02;62.09
68634;BME280;55625;47.072;22.192;2023-01-09T13:41:14;98880.47;;;10.97;62.11
68634;BME280;55625;47.072;22.192;2023-01-09T13:44:04;98883.47;;;10.93;62.58
68634;BME280;55625;47.072;22.192;2023-01-09T13:46:40;98883.19;;;10.91;63.45
68634;BME280;55625;47.072;22.192;2023-01-09T13:52:36;98883.19;;;10.91;63.15
68634;BME280;55625;47.072;22.192;2023-01-09T14:03:21;98883.03;;;10.85;62.78
68634;BME280;55625;47.072;22.192;2023-01-09T14:08:25;98881.31;;;10.79;64.04
68634;BME280;55625;47.072;22.192;2023-01-09T14:10:59;98885.41;;;10.78;63.85
68634;BME280;55625;47.072;22.192;2023-01-09T14:13:32;98869.03;;;10.73;64.22
68634;BME280;55625;47.072;22.192;2023-01-09T14:18:37;98863.66;;;10.75;63.00
68634;BME280;55625;47.072;22.192;2023-01-09T14:21:08;98863.19;;;10.76;63.25
68634;BME280;55625;47.072;22.192;2023-01-09T14:24:04;98858.78;;;10.75;63.62
68634;BME280;55625;47.072;22.192;2023-01-09T14:27:03;98845.56;;;10.72;63.67
68634;BME280;55625;47.072;22.192;2023-01-09T14:34:56;98837.38;;;10.56;63.99
68634;BME280;55625;47.072;22.192;2023-01-09T14:37:25;98835.28;;;10.66;63.42
68634;BME280;55625;47.072;22.192;2023-01-09T14:39:52;98834.66;;;10.62;63.83
68634;BME280;55625;47.072;22.192;2023-01-09T14:42:26;98830.91;;;10.55;64.55
68634;BME280;55625;47.072;22.192;2023-01-09T14:45:05;98822.25;;;10.50;64.66
68634;BME280;55625;47.072;22.192;2023-01-09T14:47:57;98835.03;;;10.45;64.89
68634;BME280;55625;47.072;22.192;2023-01-09T14:50:42;98836.78;;;10.43;65.65
68634;BME280;55625;47.072;22.192;2023-01-09T14:53:25;98825.72;;;10.36;66.19
68634;BME280;55625;47.072;22.192;2023-01-09T14:55:58;98832.50;;;10.29;66.47
68634;BME280;55625;47.072;22.192;2023-01-09T14:58:32;98829.84;;;10.25;66.91
68634;BME280;55625;47.072;22.192;2023-01-09T15:01:05;98829.53;;;10.23;66.78
68634;BME280;55625;47.072;22.192;2023-01-09T15:06:29;98832.34;;;10.14;67.54
68634;BME280;55625;47.072;22.192;2023-01-09T15:09:25;98835.00;;;10.09;67.83
68634;BME280;55625;47.072;22.192;2023-01-09T15:11:59;98837.19;;;10.05;68.33
68634;BME280;55625;47.072;22.192;2023-01-09T15:16:59;98829.81;;;9.98;68.35
68634;BME280;55625;47.072;22.192;2023-01-09T15:19:26;98827.13;;;9.94;68.98